createdAt,value
2023-03-03T00:02:12.424Z,78.44
2023-03-03T00:04:40.489Z,78.47
2023-03-03T00:07:08.346Z,78.44
2023-03-03T00:09:36.069Z,78.47
2023-03-03T00:12:15.233Z,78.50
2023-03-03T00:14:43.212Z,78.41
2023-03-03T00:17:22.418Z,78.51
2023-03-03T00:19:51.311Z,78.70
2023-03-03T00:22:33.742Z,78.54
2023-03-03T00:25:30.103Z,79.43
2023-03-03T00:28:28.035Z,78.97
2023-03-03T00:30:59.739Z,78.99
2023-03-03T00:33:34.135Z,79.03
2023-03-03T00:36:29.588Z,78.94
2023-03-03T00:39:26.776Z,78.90
2023-03-03T00:41:55.122Z,78.88
2023-03-03T00:44:43.163Z,78.86
2023-03-03T00:47:32.276Z,78.86
2023-03-03T00:50:11.283Z,78.81
2023-03-03T00:52:47.343Z,78.75
2023-03-03T00:55:15.185Z,78.71
2023-03-03T00:57:42.935Z,78.65
2023-03-03T01:00:12.452Z,78.58
2023-03-03T01:02:40.343Z,78.59
2023-03-03T01:05:10.831Z,78.65
2023-03-03T01:07:38.458Z,78.60
2023-03-03T01:10:07.569Z,78.70
2023-03-03T01:12:35.891Z,78.69
2023-03-03T01:15:05.506Z,78.76
2023-03-03T01:17:34.128Z,78.80
2023-03-03T01:20:02.718Z,78.81
2023-03-03T01:22:30.443Z,78.80
2023-03-03T01:25:00.218Z,78.88
2023-03-03T01:27:28.222Z,78.89
2023-03-03T01:29:57.841Z,78.86
2023-03-03T01:32:26.013Z,78.91
2023-03-03T01:34:54.410Z,79.15
2023-03-03T01:37:22.460Z,79.05
2023-03-03T01:39:51.889Z,79.19
2023-03-03T01:42:22.602Z,79.21
2023-03-03T01:45:12.347Z,79.49
2023-03-03T01:48:03.617Z,79.40
2023-03-03T01:50:51.288Z,79.37
2023-03-03T01:53:22.773Z,79.39
2023-03-03T01:55:52.535Z,79.37
2023-03-03T01:58:28.054Z,79.46
2023-03-03T02:01:04.949Z,79.47
2023-03-03T02:03:34.958Z,79.43
2023-03-03T02:06:10.091Z,79.48
2023-03-03T02:09:08.378Z,79.41
2023-03-03T02:11:38.747Z,79.36
2023-03-03T02:14:06.819Z,79.39
2023-03-03T02:16:34.982Z,79.43
2023-03-03T02:19:06.453Z,79.42
2023-03-03T02:21:34.463Z,79.44
2023-03-03T02:24:19.742Z,79.38
2023-03-03T02:26:48.608Z,79.42
2023-03-03T02:29:16.573Z,79.41
2023-03-03T02:31:44.584Z,79.41
2023-03-03T02:34:12.610Z,79.61
2023-03-03T02:36:41.860Z,79.60
2023-03-03T02:39:23.536Z,79.61
2023-03-03T02:42:24.486Z,79.66
2023-03-03T02:44:54.141Z,79.74
2023-03-03T02:47:22.065Z,79.79
2023-03-03T02:49:49.869Z,79.85
2023-03-03T02:52:18.829Z,79.81
2023-03-03T02:54:47.287Z,79.90
2023-03-03T02:57:15.106Z,79.89
2023-03-03T02:59:42.958Z,79.86
2023-03-03T03:02:12.759Z,79.87
2023-03-03T03:04:40.720Z,79.89
2023-03-03T03:07:11.362Z,79.93
2023-03-03T03:09:42.500Z,79.95
2023-03-03T03:12:15.390Z,79.96
2023-03-03T03:14:43.455Z,80.06
2023-03-03T03:17:12.247Z,80.06
2023-03-03T03:19:40.891Z,80.12
2023-03-03T03:22:08.868Z,79.97
2023-03-03T03:24:36.796Z,79.90
2023-03-03T03:27:06.463Z,79.78
2023-03-03T03:29:35.057Z,79.97
2023-03-03T03:32:03.079Z,79.99
2023-03-03T03:34:30.985Z,79.82
2023-03-03T03:36:58.957Z,79.61
2023-03-03T03:39:27.481Z,79.70
2023-03-03T03:41:55.610Z,79.69
2023-03-03T03:44:24.822Z,79.77
2023-03-03T03:46:52.819Z,79.86
2023-03-03T03:49:21.164Z,79.68
2023-03-03T03:51:49.976Z,79.69
2023-03-03T03:54:19.277Z,79.84
2023-03-03T03:56:47.106Z,79.98
2023-03-03T03:59:14.983Z,80.16
2023-03-03T04:01:42.922Z,80.13
2023-03-03T04:04:10.773Z,80.10
2023-03-03T04:06:38.729Z,80.14
2023-03-03T04:09:06.958Z,80.08
2023-03-03T04:11:34.887Z,80.19
2023-03-03T04:14:03.605Z,80.30
2023-03-03T04:16:32.100Z,80.31
2023-03-03T04:19:00.028Z,80.41
2023-03-03T04:21:28.172Z,80.51
2023-03-03T04:23:57.778Z,80.41
2023-03-03T04:26:29.230Z,80.45
2023-03-03T04:29:01.161Z,80.44
2023-03-03T04:31:29.649Z,80.60
2023-03-03T04:33:57.637Z,80.64
2023-03-03T04:36:26.455Z,80.60
2023-03-03T04:38:54.597Z,80.72
2023-03-03T04:41:23.223Z,80.75
2023-03-03T04:43:51.331Z,80.64
2023-03-03T04:46:20.194Z,80.77
2023-03-03T04:48:48.574Z,80.80
2023-03-03T04:51:18.120Z,80.83
2023-03-03T04:53:46.937Z,80.84
2023-03-03T04:56:15.182Z,80.96
2023-03-03T04:58:45.364Z,80.91
2023-03-03T05:01:18.146Z,81.02
2023-03-03T05:03:46.066Z,81.04
2023-03-03T05:06:13.837Z,80.99
2023-03-03T05:08:42.744Z,81.26
2023-03-03T05:11:11.474Z,81.14
2023-03-03T05:13:39.414Z,81.19
2023-03-03T05:16:07.838Z,81.03
2023-03-03T05:18:35.875Z,80.97
2023-03-03T05:21:04.388Z,81.17
2023-03-03T05:23:32.303Z,81.12
2023-03-03T05:26:00.138Z,81.19
2023-03-03T05:28:28.743Z,81.32
2023-03-03T05:30:56.977Z,81.29
2023-03-03T05:33:25.147Z,81.16
2023-03-03T05:35:57.730Z,81.24
2023-03-03T05:38:25.868Z,81.25
2023-03-03T05:40:54.372Z,81.25
2023-03-03T05:43:22.485Z,81.26
2023-03-03T05:45:57.185Z,81.28
2023-03-03T05:48:25.413Z,81.31
2023-03-03T05:50:53.305Z,81.37
2023-03-03T05:53:21.483Z,81.45
2023-03-03T05:55:49.469Z,81.43
2023-03-03T05:58:17.535Z,81.48
2023-03-03T06:00:45.710Z,81.44
2023-03-03T06:03:13.796Z,81.72
2023-03-03T06:05:42.535Z,81.49
2023-03-03T06:08:10.379Z,81.56
2023-03-03T06:10:38.570Z,81.80
2023-03-03T06:13:07.286Z,81.76
2023-03-03T06:15:35.636Z,81.85
2023-03-03T06:18:04.943Z,81.93
2023-03-03T06:20:33.326Z,82.00
2023-03-03T06:23:01.740Z,82.09
2023-03-03T06:25:31.062Z,82.01
2023-03-03T06:27:59.157Z,82.16
2023-03-03T06:30:28.146Z,82.18
2023-03-03T06:32:56.327Z,82.60
2023-03-03T06:35:24.544Z,82.56
2023-03-03T06:37:52.582Z,82.29
2023-03-03T06:40:20.800Z,82.22
2023-03-03T06:42:49.639Z,82.34
2023-03-03T06:45:17.858Z,82.31
2023-03-03T06:47:46.289Z,82.02
2023-03-03T06:50:19.079Z,82.14
2023-03-03T06:52:47.041Z,82.01
2023-03-03T06:55:20.579Z,81.99
2023-03-03T06:57:48.993Z,81.89
2023-03-03T07:00:25.923Z,81.75
2023-03-03T07:03:01.815Z,81.79
2023-03-03T07:05:30.335Z,81.76
2023-03-03T07:07:58.946Z,81.67
2023-03-03T07:10:31.548Z,81.43
2023-03-03T07:13:04.880Z,81.49
2023-03-03T07:15:36.548Z,81.59
2023-03-03T07:18:24.627Z,81.72
2023-03-03T07:20:52.773Z,81.72
2023-03-03T07:23:41.971Z,81.94
2023-03-03T07:26:39.359Z,81.79
2023-03-03T07:29:23.061Z,81.57
2023-03-03T07:31:51.484Z,81.44
2023-03-03T07:34:42.794Z,81.28
2023-03-03T07:37:19.771Z,81.15
2023-03-03T07:39:49.605Z,80.84
2023-03-03T07:42:29.170Z,80.58
2023-03-03T07:45:26.586Z,80.53
2023-03-03T07:48:08.894Z,80.04
2023-03-03T07:50:41.677Z,80.19
2023-03-03T07:53:20.784Z,80.00
2023-03-03T07:55:49.485Z,79.89
2023-03-03T07:58:25.784Z,79.61
2023-03-03T08:01:35.771Z,79.55
2023-03-03T08:04:30.985Z,79.39
2023-03-03T08:07:02.113Z,79.03
2023-03-03T08:09:58.827Z,79.12
2023-03-03T08:12:41.226Z,79.21
2023-03-03T08:15:22.960Z,78.72
2023-03-03T08:17:54.319Z,79.19
2023-03-03T08:20:48.766Z,78.82
2023-03-03T08:23:25.657Z,78.41
2023-03-03T08:25:55.828Z,77.88
2023-03-03T08:28:24.277Z,77.79
2023-03-03T08:31:05.548Z,77.16
2023-03-03T08:33:24.173Z,76.18
2023-03-03T08:35:52.353Z,75.91
2023-03-03T08:38:24.386Z,75.29
2023-03-03T08:40:52.563Z,75.38
2023-03-03T08:43:22.531Z,75.01
2023-03-03T08:45:53.770Z,74.77
2023-03-03T08:48:26.507Z,75.01
2023-03-03T08:50:58.281Z,74.72
2023-03-03T08:53:27.663Z,74.33
2023-03-03T08:55:56.796Z,73.84
2023-03-03T08:58:34.691Z,73.64
2023-03-03T09:00:55.083Z,74.07
2023-03-03T09:03:23.396Z,74.03
2023-03-03T09:05:51.280Z,73.17
2023-03-03T09:08:19.692Z,72.54
2023-03-03T09:10:49.632Z,72.68
2023-03-03T09:13:22.087Z,72.43
2023-03-03T09:15:50.277Z,72.39
2023-03-03T09:18:37.245Z,72.23
2023-03-03T09:21:32.728Z,71.67
2023-03-03T09:24:08.990Z,72.11
2023-03-03T09:26:48.839Z,71.71
2023-03-03T09:29:34.273Z,71.04
2023-03-03T09:32:37.689Z,70.27
2023-03-03T09:35:42.925Z,70.16
2023-03-03T09:38:32.344Z,70.13
2023-03-03T09:41:23.999Z,69.34
2023-03-03T09:44:27.568Z,70.05
2023-03-03T09:47:06.865Z,69.97
2023-03-03T09:50:02.704Z,69.35
2023-03-03T09:53:04.900Z,69.14
2023-03-03T09:55:56.677Z,67.67
2023-03-03T09:58:47.058Z,65.69
2023-03-03T10:01:44.883Z,64.27
2023-03-03T10:04:36.351Z,60.45
2023-03-03T10:07:24.484Z,60.91
2023-03-03T10:10:16.928Z,58.47
2023-03-03T10:13:04.629Z,59.91
2023-03-03T10:16:00.580Z,58.13
2023-03-03T10:18:38.130Z,57.03
2023-03-03T10:21:20.692Z,54.96
2023-03-03T10:23:59.424Z,55.12
2023-03-03T10:27:05.261Z,53.41
2023-03-03T10:29:46.205Z,53.44
2023-03-03T10:32:28.972Z,54.18
2023-03-03T10:35:45.658Z,52.63
2023-03-03T10:38:35.541Z,51.60
2023-03-03T10:41:39.024Z,53.22
2023-03-03T10:44:38.042Z,52.68
2023-03-03T10:47:20.397Z,53.10
2023-03-03T10:50:33.812Z,53.26
2023-03-03T10:53:31.508Z,54.72
2023-03-03T10:56:23.053Z,54.38
2023-03-03T10:59:02.133Z,52.98
2023-03-03T11:02:07.233Z,50.42
2023-03-03T11:05:12.380Z,52.64
2023-03-03T11:07:48.481Z,52.37
2023-03-03T11:10:27.936Z,52.20
2023-03-03T11:13:03.119Z,51.57
2023-03-03T11:15:45.513Z,50.93
2023-03-03T11:18:34.021Z,50.45
2023-03-03T11:21:21.921Z,51.21
2023-03-03T11:24:15.183Z,51.83
2023-03-03T11:27:17.134Z,51.85
2023-03-03T11:30:16.453Z,50.18
2023-03-03T11:32:52.516Z,49.43
2023-03-03T11:35:27.803Z,46.66
2023-03-03T11:38:20.442Z,47.95
2023-03-03T11:40:56.419Z,46.29
2023-03-03T11:43:42.299Z,46.01
2023-03-03T11:46:13.340Z,45.91
2023-03-03T11:49:09.097Z,45.21
2023-03-03T11:52:03.548Z,45.62
2023-03-03T11:54:42.793Z,46.51
2023-03-03T11:57:25.330Z,47.67
2023-03-03T12:00:13.846Z,47.14
2023-03-03T12:03:10.170Z,46.13
2023-03-03T12:05:49.776Z,46.74
2023-03-03T12:08:37.986Z,46.82
2023-03-03T12:11:29.566Z,47.92
2023-03-03T12:14:26.627Z,46.93
2023-03-03T12:17:03.346Z,46.81
2023-03-03T12:19:53.485Z,45.58
2023-03-03T12:22:33.807Z,44.91
2023-03-03T12:25:28.175Z,46.24
2023-03-03T12:28:10.295Z,44.99
2023-03-03T12:31:15.735Z,45.36
2023-03-03T12:33:56.313Z,46.29
2023-03-03T12:36:47.292Z,46.59
2023-03-03T12:39:38.666Z,45.02
2023-03-03T12:42:43.844Z,44.23
2023-03-03T12:45:35.435Z,45.14
2023-03-03T12:48:32.583Z,44.35
2023-03-03T12:51:22.502Z,45.44
2023-03-03T12:54:37.202Z,45.35
2023-03-03T12:57:31.832Z,46.18
2023-03-03T13:00:23.730Z,44.26
2023-03-03T13:03:02.972Z,42.81
2023-03-03T13:06:05.802Z,43.48
2023-03-03T13:09:01.751Z,44.42
2023-03-03T13:11:33.008Z,43.65
2023-03-03T13:14:20.900Z,44.47
2023-03-03T13:16:56.712Z,44.42
2023-03-03T13:19:30.237Z,45.21
2023-03-03T13:22:09.050Z,46.15
2023-03-03T13:24:58.954Z,45.92
2023-03-03T13:27:35.253Z,45.71
2023-03-03T13:30:17.432Z,46.67
2023-03-03T13:32:59.066Z,46.22
2023-03-03T13:35:44.074Z,45.21
2023-03-03T13:38:16.979Z,44.44
2023-03-03T13:40:52.677Z,44.44
2023-03-03T13:43:27.447Z,44.99
2023-03-03T13:46:29.776Z,45.49
2023-03-03T13:49:25.682Z,45.46
2023-03-03T13:52:11.589Z,45.26
2023-03-03T13:55:02.976Z,45.11
2023-03-03T13:57:41.693Z,46.17
2023-03-03T14:00:30.279Z,46.34
2023-03-03T14:03:28.916Z,46.50
2023-03-03T14:06:09.218Z,46.46
2023-03-03T14:08:55.005Z,46.79
2023-03-03T14:11:31.942Z,46.67
2023-03-03T14:14:24.703Z,45.97
2023-03-03T14:17:25.289Z,46.84
2023-03-03T14:20:13.593Z,47.01
2023-03-03T14:22:54.777Z,46.83
2023-03-03T14:25:22.458Z,47.11
2023-03-03T14:28:01.551Z,46.99
2023-03-03T14:30:45.147Z,47.16
2023-03-03T14:33:18.146Z,47.04
2023-03-03T14:36:00.073Z,46.93
2023-03-03T14:38:38.869Z,47.20
2023-03-03T14:41:14.766Z,46.91
2023-03-03T14:44:12.112Z,47.49
2023-03-03T14:46:41.337Z,47.85
2023-03-03T14:49:30.019Z,47.69
2023-03-03T14:52:23.186Z,47.48
2023-03-03T14:54:59.344Z,47.92
2023-03-03T14:57:47.273Z,47.71
2023-03-03T15:00:23.602Z,47.61
2023-03-03T15:03:23.229Z,48.05
2023-03-03T15:05:57.427Z,47.86
2023-03-03T15:08:35.502Z,47.64
2023-03-03T15:11:20.362Z,47.60
2023-03-03T15:13:48.287Z,47.31
2023-03-03T15:16:23.598Z,47.24
2023-03-03T15:19:02.693Z,47.53
2023-03-03T15:21:34.820Z,47.98
2023-03-03T15:24:14.578Z,48.07
2023-03-03T15:26:56.337Z,48.37
2023-03-03T15:29:44.239Z,48.52
2023-03-03T15:32:30.947Z,48.77
2023-03-03T15:35:16.194Z,48.80
2023-03-03T15:37:58.618Z,49.08
2023-03-03T15:40:49.090Z,49.38
2023-03-03T15:43:45.260Z,49.44
2023-03-03T15:46:33.533Z,49.58
2023-03-03T15:49:24.877Z,49.60
2023-03-03T15:52:05.036Z,49.96
2023-03-03T15:55:04.079Z,50.15
2023-03-03T15:57:40.690Z,50.19
2023-03-03T16:00:54.898Z,50.43
2023-03-03T16:03:36.207Z,50.44
2023-03-03T16:06:18.292Z,50.58
2023-03-03T16:09:05.795Z,50.78
2023-03-03T16:12:12.500Z,50.97
2023-03-03T16:15:13.097Z,51.19
2023-03-03T16:18:00.857Z,51.37
2023-03-03T16:20:37.228Z,51.72
2023-03-03T16:23:35.298Z,51.98
2023-03-03T16:26:28.511Z,52.22
2023-03-03T16:29:14.167Z,52.44
2023-03-03T16:31:59.405Z,52.69
2023-03-03T16:34:32.552Z,52.93
2023-03-03T16:37:31.789Z,53.22
2023-03-03T16:40:24.605Z,53.41
2023-03-03T16:43:16.103Z,53.55
2023-03-03T16:45:47.312Z,53.73
2023-03-03T16:48:47.302Z,53.90
2023-03-03T16:51:46.049Z,54.10
2023-03-03T16:54:57.341Z,54.35
2023-03-03T16:57:47.998Z,54.50
2023-03-03T17:00:23.429Z,54.70
2023-03-03T17:03:24.714Z,54.91
2023-03-03T17:06:03.689Z,55.07
2023-03-03T17:09:02.285Z,55.43
2023-03-03T17:11:39.011Z,55.66
2023-03-03T17:14:18.729Z,56.06
2023-03-03T17:17:16.788Z,56.32
2023-03-03T17:19:56.894Z,56.57
2023-03-03T17:23:01.179Z,56.81
2023-03-03T17:25:57.380Z,57.08
2023-03-03T17:29:06.501Z,57.26
2023-03-03T17:31:46.682Z,57.37
2023-03-03T17:34:40.454Z,57.68
2023-03-03T17:37:33.861Z,57.93
2023-03-03T17:40:16.386Z,58.19
2023-03-03T17:42:55.896Z,58.46
2023-03-03T17:45:27.831Z,58.70
2023-03-03T17:48:10.229Z,59.18
2023-03-03T17:50:43.394Z,59.53
2023-03-03T17:53:37.638Z,59.91
2023-03-03T17:56:13.493Z,60.34
2023-03-03T17:59:04.446Z,60.34
2023-03-03T18:02:03.495Z,60.50
2023-03-03T18:04:56.999Z,60.36
2023-03-03T18:07:48.091Z,60.72
2023-03-03T18:10:42.977Z,60.57
2023-03-03T18:13:33.695Z,60.54
2023-03-03T18:16:19.424Z,60.62
2023-03-03T18:19:21.931Z,60.70
2023-03-03T18:22:07.223Z,60.75
2023-03-03T18:24:43.145Z,60.90
2023-03-03T18:27:37.128Z,61.00
2023-03-03T18:30:24.368Z,61.10
2023-03-03T18:33:00.850Z,61.26
2023-03-03T18:35:45.447Z,61.30
2023-03-03T18:38:29.108Z,61.45
2023-03-03T18:41:01.181Z,61.64
2023-03-03T18:43:47.863Z,61.78
2023-03-03T18:46:27.716Z,61.96
2023-03-03T18:49:08.818Z,62.19
2023-03-03T18:51:46.868Z,62.23
2023-03-03T18:54:25.024Z,62.57
2023-03-03T18:57:03.416Z,62.62
2023-03-03T18:59:40.564Z,62.97
2023-03-03T19:02:38.482Z,63.01
2023-03-03T19:05:20.407Z,63.20
2023-03-03T19:08:05.094Z,63.52
2023-03-03T19:10:50.363Z,63.74
2023-03-03T19:13:38.209Z,63.83
2023-03-03T19:16:28.128Z,63.98
2023-03-03T19:19:04.303Z,64.31
2023-03-03T19:21:35.437Z,64.70
2023-03-03T19:24:27.391Z,65.07
2023-03-03T19:27:27.381Z,65.54
2023-03-03T19:30:40.756Z,65.84
2023-03-03T19:33:35.331Z,65.82
2023-03-03T19:36:35.976Z,65.99
2023-03-03T19:39:24.032Z,66.13
2023-03-03T19:42:18.074Z,66.23
2023-03-03T19:45:07.336Z,66.36
2023-03-03T19:48:06.577Z,66.42
2023-03-03T19:50:44.846Z,66.52
2023-03-03T19:53:40.585Z,66.83
2023-03-03T19:56:45.754Z,66.74
2023-03-03T19:59:19.226Z,66.96
2023-03-03T20:02:04.265Z,67.17
2023-03-03T20:05:02.044Z,67.32
2023-03-03T20:07:44.163Z,67.58
2023-03-03T20:10:45.666Z,67.77
2023-03-03T20:13:51.311Z,67.81
2023-03-03T20:16:42.218Z,67.88
2023-03-03T20:19:44.218Z,68.08
2023-03-03T20:22:43.493Z,68.30
2023-03-03T20:25:28.930Z,68.40
2023-03-03T20:28:39.689Z,68.58
2023-03-03T20:31:33.440Z,68.70
2023-03-03T20:34:13.092Z,68.86
2023-03-03T20:37:08.221Z,69.13
2023-03-03T20:40:08.995Z,69.18
2023-03-03T20:43:12.665Z,69.25
2023-03-03T20:46:01.021Z,69.31
2023-03-03T20:48:46.542Z,69.36
2023-03-03T20:51:19.666Z,69.46
2023-03-03T20:54:02.310Z,69.56
2023-03-03T20:56:51.021Z,69.66
2023-03-03T20:59:31.119Z,69.66
2023-03-03T21:02:16.919Z,69.76
2023-03-03T21:04:45.317Z,69.90
2023-03-03T21:07:26.475Z,70.20
2023-03-03T21:10:16.931Z,70.28
2023-03-03T21:12:45.180Z,70.36
2023-03-03T21:15:30.187Z,70.52
2023-03-03T21:17:59.662Z,70.64
2023-03-03T21:20:34.894Z,70.72
2023-03-03T21:23:03.400Z,70.85
2023-03-03T21:25:44.380Z,70.86
2023-03-03T21:28:32.440Z,70.87
2023-03-03T21:31:17.760Z,70.96
2023-03-03T21:33:57.707Z,71.29
2023-03-03T21:36:40.284Z,71.49
2023-03-03T21:39:28.568Z,71.74
2023-03-03T21:42:15.634Z,71.99
2023-03-03T21:44:51.316Z,72.07
2023-03-03T21:47:22.383Z,72.13
2023-03-03T21:49:51.975Z,72.16
2023-03-03T21:52:27.642Z,72.21
2023-03-03T21:54:55.726Z,72.24
2023-03-03T21:57:25.582Z,72.40
2023-03-03T21:59:53.765Z,72.41
2023-03-03T22:02:21.663Z,72.49
2023-03-03T22:04:51.479Z,72.61
2023-03-03T22:07:19.209Z,72.71
2023-03-03T22:09:51.254Z,72.83
2023-03-03T22:12:19.105Z,72.86
2023-03-03T22:14:46.721Z,73.00
2023-03-03T22:17:14.940Z,73.51
2023-03-03T22:19:43.106Z,73.80
2023-03-03T22:22:13.893Z,73.73
2023-03-03T22:24:41.710Z,73.80
2023-03-03T22:27:11.697Z,74.05
2023-03-03T22:29:39.771Z,73.98
2023-03-03T22:32:07.506Z,74.13
2023-03-03T22:34:37.530Z,74.14
2023-03-03T22:37:05.272Z,74.17
2023-03-03T22:39:32.933Z,74.16
2023-03-03T22:42:00.694Z,74.23
2023-03-03T22:44:28.621Z,74.22
2023-03-03T22:46:56.709Z,74.30
2023-03-03T22:49:24.591Z,74.45
2023-03-03T22:51:52.668Z,74.53
2023-03-03T22:54:20.388Z,74.58
2023-03-03T22:56:47.973Z,74.60
2023-03-03T22:59:15.541Z,74.68
2023-03-03T23:01:43.211Z,74.78
2023-03-03T23:04:10.953Z,75.00
2023-03-03T23:06:38.740Z,75.10
2023-03-03T23:09:07.408Z,75.13
2023-03-03T23:11:35.063Z,75.20
2023-03-03T23:14:02.743Z,75.15
2023-03-03T23:16:30.421Z,75.14
2023-03-03T23:18:58.049Z,75.42
2023-03-03T23:21:25.775Z,75.71
2023-03-03T23:23:53.374Z,75.63
2023-03-03T23:26:21.242Z,75.72
2023-03-03T23:28:48.794Z,75.92
2023-03-03T23:31:16.501Z,76.12
2023-03-03T23:33:44.025Z,76.12
2023-03-03T23:36:12.614Z,76.13
2023-03-03T23:38:42.709Z,76.40
2023-03-03T23:41:09.905Z,76.51
2023-03-03T23:43:37.489Z,76.73
2023-03-03T23:46:05.280Z,76.88
2023-03-03T23:48:32.955Z,76.94
2023-03-03T23:51:01.036Z,76.95
2023-03-03T23:53:28.783Z,77.05
2023-03-03T23:55:56.487Z,77.13
2023-03-03T23:58:23.910Z,77.14
